Time;durP1;ratioP1;P1;durP2;ratioP2;P2;SDS_P1;SDS_P2;PMS_P1;PMS_P2;Temp;Humidity;BMP_temperature;BMP_pressure;BME280_temperature;BME280_humidity;BME280_pressure;Samples;Min_cycle;Max_cycle;Signal;HPM_P1;HPM_P2
2023/09/23 00:01:49;;;;;;;9.25;6.68;;;12.30;99.90;;;;;;5036154;28;20360;-73
2023/09/23 00:04:16;;;;;;;9.88;6.68;;;12.30;99.90;;;;;;5036730;28;20040;-73
2023/09/23 00:06:42;;;;;;;9.60;7.40;;;12.30;99.90;;;;;;5036651;28;20546;-73
2023/09/23 00:09:08;;;;;;;8.77;7.07;;;12.30;99.90;;;;;;5036335;28;20112;-72
2023/09/23 00:11:37;;;;;;;10.70;8.35;;;12.30;99.90;;;;;;5036390;28;20025;-72
2023/09/23 00:14:05;;;;;;;11.75;9.63;;;12.30;99.90;;;;;;5035925;28;20021;-72
2023/09/23 00:16:31;;;;;;;11.07;8.88;;;12.20;99.90;;;;;;5036433;28;20064;-72
2023/09/23 00:18:56;;;;;;;10.95;9.18;;;12.20;99.90;;;;;;5036224;28;20065;-71
2023/09/23 00:21:22;;;;;;;12.65;9.93;;;12.20;99.90;;;;;;5036457;28;20030;-72
2023/09/23 00:23:48;;;;;;;13.65;9.57;;;12.20;99.90;;;;;;5036206;28;20025;-72
2023/09/23 00:26:20;;;;;;;9.63;8.43;;;12.20;99.90;;;;;;5036111;28;20070;-72
2023/09/23 00:28:46;;;;;;;11.73;9.45;;;12.20;99.90;;;;;;5037217;28;20033;-72
2023/09/23 00:31:14;;;;;;;13.40;9.80;;;12.20;99.90;;;;;;5039333;28;20049;-72
2023/09/23 00:33:40;;;;;;;13.32;9.32;;;12.20;99.90;;;;;;5051858;28;20018;-73
2023/09/23 00:36:08;;;;;;;13.38;9.95;;;12.20;99.90;;;;;;5051604;28;20083;-73
2023/09/23 00:38:35;;;;;;;12.95;9.63;;;12.20;99.90;;;;;;5039683;28;20083;-73
2023/09/23 00:41:01;;;;;;;12.63;10.07;;;12.20;99.90;;;;;;5036424;28;20033;-74
2023/09/23 00:43:27;;;;;;;15.07;10.32;;;12.20;99.90;;;;;;5035875;28;20037;-73
2023/09/23 00:45:54;;;;;;;13.35;10.55;;;12.20;99.90;;;;;;5035440;28;20029;-76
2023/09/23 00:48:21;;;;;;;12.35;10.20;;;12.20;99.90;;;;;;5035595;28;20033;-73
2023/09/23 00:50:48;;;;;;;12.95;10.65;;;12.20;99.90;;;;;;5035465;28;20394;-73
2023/09/23 00:53:14;;;;;;;14.00;10.80;;;12.20;99.90;;;;;;5035604;28;20379;-73
2023/09/23 00:55:44;;;;;;;14.95;10.90;;;12.20;99.90;;;;;;5035377;28;20160;-73
2023/09/23 00:58:14;;;;;;;17.85;12.02;;;12.20;99.90;;;;;;5035478;28;20021;-73
2023/09/23 01:00:43;;;;;;;17.30;11.65;;;12.20;99.90;;;;;;5035338;28;20025;-73
2023/09/23 01:03:10;;;;;;;18.23;12.07;;;12.20;99.90;;;;;;5035585;28;20035;-73
2023/09/23 01:05:36;;;;;;;16.55;11.18;;;12.20;99.90;;;;;;5034885;28;20091;-73
2023/09/23 01:08:04;;;;;;;20.02;12.20;;;12.30;99.90;;;;;;5034971;28;20029;-73
2023/09/23 01:10:30;;;;;;;17.13;12.60;;;12.30;99.90;;;;;;5035434;28;20108;-73
2023/09/23 01:12:56;;;;;;;17.42;12.38;;;12.30;99.90;;;;;;5034626;28;20125;-73
2023/09/23 01:15:25;;;;;;;17.15;13.25;;;12.30;99.90;;;;;;5035046;28;20022;-73
2023/09/23 01:17:53;;;;;;;15.32;11.70;;;12.30;99.90;;;;;;5035330;28;20017;-73
2023/09/23 01:20:20;;;;;;;19.88;12.88;;;12.30;99.90;;;;;;5034702;28;20022;-74
2023/09/23 01:22:47;;;;;;;16.77;12.57;;;12.30;99.90;;;;;;5035212;28;20026;-73
2023/09/23 01:25:14;;;;;;;19.17;13.48;;;12.40;99.90;;;;;;5034826;28;20604;-74
2023/09/23 01:27:40;;;;;;;19.33;12.90;;;12.40;99.90;;;;;;5034721;28;20112;-73
2023/09/23 01:30:07;;;;;;;16.05;12.43;;;12.40;99.90;;;;;;5034412;28;21764;-73
2023/09/23 01:32:50;;;;;;;16.00;11.93;;;12.40;99.90;;;;;;5034490;28;20038;-73
2023/09/23 01:35:17;;;;;;;17.13;12.40;;;12.40;99.90;;;;;;5034377;28;20025;-73
2023/09/23 01:37:44;;;;;;;17.58;12.75;;;12.30;99.90;;;;;;5034934;28;20037;-74
2023/09/23 01:40:16;;;;;;;16.80;12.20;;;12.40;99.90;;;;;;5034492;28;20116;-73
2023/09/23 01:42:42;;;;;;;16.75;11.27;;;12.40;99.90;;;;;;5034424;28;20112;-73
2023/09/23 01:45:10;;;;;;;17.33;10.88;;;12.40;99.90;;;;;;5034397;28;20107;-74
2023/09/23 01:47:37;;;;;;;14.88;11.23;;;12.40;99.90;;;;;;5034834;28;20037;-76
2023/09/23 01:50:03;;;;;;;16.88;10.55;;;12.40;99.90;;;;;;5034131;28;20083;-74
2023/09/23 01:52:29;;;;;;;14.50;9.88;;;12.40;99.90;;;;;;5034019;28;20453;-74
2023/09/23 01:54:55;;;;;;;14.98;10.40;;;12.40;99.90;;;;;;5034351;28;20028;-73
2023/09/23 01:57:20;;;;;;;14.63;9.65;;;12.30;99.90;;;;;;5034598;28;20030;-73
2023/09/23 01:59:46;;;;;;;13.40;9.57;;;12.30;99.90;;;;;;5034130;28;20076;-74
2023/09/23 02:02:12;;;;;;;14.05;10.15;;;12.30;99.90;;;;;;5033517;28;20036;-73
2023/09/23 02:04:39;;;;;;;14.35;10.13;;;12.30;99.90;;;;;;5034115;28;20028;-73
2023/09/23 02:07:04;;;;;;;12.93;9.20;;;12.30;99.90;;;;;;5033871;28;20028;-74
2023/09/23 02:09:30;;;;;;;11.23;8.77;;;12.20;99.90;;;;;;5034399;28;20459;-73
2023/09/23 02:11:56;;;;;;;11.38;8.10;;;12.20;99.90;;;;;;5033958;28;20116;-73
2023/09/23 02:14:21;;;;;;;14.02;8.35;;;12.20;99.90;;;;;;5034085;28;20459;-73
2023/09/23 02:16:47;;;;;;;10.90;8.30;;;12.20;99.90;;;;;;5034318;28;20108;-73
2023/09/23 02:19:13;;;;;;;14.20;8.10;;;12.10;99.90;;;;;;5034296;28;20029;-74
2023/09/23 02:21:38;;;;;;;14.43;8.23;;;12.20;99.90;;;;;;5034057;28;20138;-71
2023/09/23 02:24:06;;;;;;;11.23;7.53;;;12.10;99.90;;;;;;5033987;28;20030;-73
2023/09/23 02:26:31;;;;;;;11.30;7.50;;;12.20;99.90;;;;;;5033688;28;20112;-73
2023/09/23 02:28:57;;;;;;;10.13;7.05;;;12.10;99.90;;;;;;5033978;28;20068;-74
2023/09/23 02:31:23;;;;;;;10.38;7.05;;;12.10;99.90;;;;;;5033086;28;20046;-74
2023/09/23 02:33:48;;;;;;;11.32;6.55;;;12.10;99.90;;;;;;5033914;28;20022;-73
2023/09/23 02:36:14;;;;;;;10.00;6.75;;;12.10;99.90;;;;;;5034210;28;20034;-74
2023/09/23 02:38:42;;;;;;;9.20;6.05;;;12.10;99.90;;;;;;5033409;28;20105;-73
2023/09/23 02:41:08;;;;;;;7.60;5.47;;;12.10;99.90;;;;;;5033417;28;20445;-74
2023/09/23 02:43:34;;;;;;;8.30;5.47;;;12.10;99.90;;;;;;5033753;28;20033;-73
2023/09/23 02:46:00;;;;;;;7.63;5.20;;;12.00;99.90;;;;;;5033385;28;20551;-73
2023/09/23 02:48:26;;;;;;;6.80;5.00;;;12.00;99.90;;;;;;5033711;28;20025;-73
2023/09/23 02:50:52;;;;;;;8.90;5.22;;;11.90;99.90;;;;;;5033912;28;20025;-73
2023/09/23 02:53:17;;;;;;;7.30;5.18;;;11.90;99.90;;;;;;5033470;28;20084;-73
2023/09/23 02:55:51;;;;;;;6.75;4.78;;;11.90;99.90;;;;;;5033947;28;20079;-73
2023/09/23 02:58:17;;;;;;;6.45;5.07;;;11.80;99.90;;;;;;5033635;28;20017;-73
2023/09/23 03:00:57;;;;;;;8.40;5.50;;;11.80;99.90;;;;;;5033667;28;20026;-73
2023/09/23 03:03:22;;;;;;;8.80;5.57;;;11.70;99.90;;;;;;5033608;28;20021;-73
2023/09/23 03:05:54;;;;;;;6.15;4.97;;;11.60;99.90;;;;;;5033572;28;20379;-73
2023/09/23 03:08:22;;;;;;;8.63;5.35;;;11.60;99.90;;;;;;5033232;28;20025;-73
2023/09/23 03:10:49;;;;;;;10.63;5.20;;;11.50;99.90;;;;;;5033710;28;20095;-73
2023/09/23 03:13:17;;;;;;;8.60;6.03;;;11.50;99.90;;;;;;5034543;28;20030;-73
2023/09/23 03:15:48;;;;;;;10.80;6.35;;;11.50;99.90;;;;;;5036612;28;20032;-73
2023/09/23 03:18:14;;;;;;;7.20;5.75;;;11.40;99.90;;;;;;5037196;28;20032;-73
2023/09/23 03:20:40;;;;;;;10.07;5.72;;;11.40;99.90;;;;;;5036938;28;20063;-74
2023/09/23 03:23:10;;;;;;;8.98;5.70;;;11.40;99.90;;;;;;5037223;28;20048;-73
2023/09/23 03:25:44;;;;;;;9.43;6.15;;;11.40;99.90;;;;;;5037094;28;20037;-73
2023/09/23 03:28:10;;;;;;;11.20;5.82;;;11.50;99.90;;;;;;5037167;28;20029;-73
2023/09/23 03:30:36;;;;;;;11.80;7.30;;;11.50;99.90;;;;;;5036826;28;20451;-73
2023/09/23 03:33:02;;;;;;;10.52;7.15;;;11.60;99.90;;;;;;5036996;28;20151;-72
2023/09/23 03:35:28;;;;;;;11.45;7.35;;;11.60;99.90;;;;;;5037003;28;20108;-73
2023/09/23 03:37:53;;;;;;;12.20;8.30;;;11.60;99.90;;;;;;5037229;28;20109;-73
2023/09/23 03:40:20;;;;;;;12.60;8.15;;;11.60;99.90;;;;;;5037187;28;20091;-73
2023/09/23 03:42:48;;;;;;;10.88;8.73;;;11.60;99.90;;;;;;5036940;28;20021;-73
2023/09/23 03:45:15;;;;;;;13.23;9.10;;;11.60;99.90;;;;;;5036721;28;20044;-73
2023/09/23 03:47:40;;;;;;;11.15;8.85;;;11.60;99.90;;;;;;5036663;28;20049;-73
2023/09/23 03:50:07;;;;;;;13.13;9.73;;;11.60;99.90;;;;;;5037034;28;20091;-73
2023/09/23 03:52:33;;;;;;;12.57;9.82;;;11.60;99.90;;;;;;5036204;28;20120;-73
2023/09/23 03:54:59;;;;;;;14.52;10.35;;;11.60;99.90;;;;;;5036829;28;20064;-73
2023/09/23 03:57:24;;;;;;;17.45;10.70;;;11.60;99.90;;;;;;5036710;28;20057;-73
2023/09/23 03:59:50;;;;;;;16.70;11.27;;;11.60;99.90;;;;;;5036350;28;20511;-73
2023/09/23 04:02:15;;;;;;;16.55;10.52;;;11.60;99.90;;;;;;5036815;28;20068;-73
2023/09/23 04:04:42;;;;;;;13.63;11.20;;;11.60;99.90;;;;;;5036813;28;20032;-73
2023/09/23 04:07:08;;;;;;;17.67;11.65;;;11.60;99.90;;;;;;5036025;28;20029;-73
2023/09/23 04:09:33;;;;;;;16.38;11.07;;;11.60;99.90;;;;;;5036434;28;20380;-72
2023/09/23 04:12:00;;;;;;;18.77;11.68;;;11.60;99.90;;;;;;5036170;28;20026;-73
2023/09/23 04:14:28;;;;;;;16.27;11.32;;;11.70;99.90;;;;;;5035936;28;20026;-73
2023/09/23 04:16:54;;;;;;;17.15;11.93;;;11.70;99.90;;;;;;5036286;28;20057;-73
2023/09/23 04:19:19;;;;;;;21.15;11.80;;;11.70;99.90;;;;;;5036231;28;20122;-75
2023/09/23 04:21:45;;;;;;;17.17;11.18;;;11.80;99.90;;;;;;5036071;28;20079;-73
2023/09/23 04:24:10;;;;;;;16.80;11.82;;;11.80;99.90;;;;;;5035690;28;20159;-73
2023/09/23 04:26:36;;;;;;;21.38;11.98;;;11.80;99.90;;;;;;5035915;28;20026;-73
2023/09/23 04:29:01;;;;;;;18.98;11.75;;;11.80;99.90;;;;;;5036325;28;20060;-73
2023/09/23 04:31:28;;;;;;;16.73;11.32;;;11.80;99.90;;;;;;5035200;28;20042;-73
2023/09/23 04:33:53;;;;;;;21.20;10.95;;;11.90;99.90;;;;;;5035579;28;20429;-73
2023/09/23 04:36:21;;;;;;;17.45;11.02;;;11.90;99.90;;;;;;5036197;28;20032;-73
2023/09/23 04:38:48;;;;;;;19.92;10.85;;;12.00;99.90;;;;;;5036142;28;20589;-73
2023/09/23 04:41:13;;;;;;;16.33;10.60;;;12.10;99.90;;;;;;5035830;28;20033;-73
2023/09/23 04:43:40;;;;;;;17.85;9.32;;;12.10;99.90;;;;;;5035996;28;20083;-73
2023/09/23 04:46:06;;;;;;;15.88;9.48;;;12.20;99.90;;;;;;5035330;28;20499;-73
2023/09/23 04:48:31;;;;;;;12.20;8.98;;;12.20;99.90;;;;;;5035938;28;20116;-73
2023/09/23 04:50:57;;;;;;;12.68;8.85;;;12.20;99.90;;;;;;5035599;28;20541;-73
2023/09/23 04:53:22;;;;;;;10.52;7.88;;;12.30;99.90;;;;;;5035893;28;20033;-73
2023/09/23 04:55:48;;;;;;;13.35;8.65;;;12.30;99.90;;;;;;5035528;28;20041;-73
2023/09/23 04:58:13;;;;;;;13.60;8.55;;;12.30;99.90;;;;;;5035827;28;20021;-74
2023/09/23 05:00:39;;;;;;;11.23;7.93;;;12.30;99.90;;;;;;5035711;28;20520;-73
2023/09/23 05:03:08;;;;;;;9.75;7.50;;;12.30;99.90;;;;;;5035425;28;20041;-78
2023/09/23 05:05:34;;;;;;;13.05;6.50;;;12.30;99.90;;;;;;5035657;28;20529;-74
2023/09/23 05:08:01;;;;;;;12.80;7.25;;;12.30;99.90;;;;;;5035158;28;20467;-73
2023/09/23 05:10:28;;;;;;;11.13;6.88;;;12.30;99.90;;;;;;5035224;28;20147;-73
2023/09/23 05:12:57;;;;;;;9.93;6.82;;;12.30;99.90;;;;;;5035033;28;20386;-73
2023/09/23 05:15:24;;;;;;;9.38;6.50;;;12.30;99.90;;;;;;5035155;28;20037;-72
2023/09/23 05:17:50;;;;;;;10.82;6.65;;;12.40;99.90;;;;;;5034532;28;20040;-72
2023/09/23 05:20:25;;;;;;;12.63;7.60;;;12.30;99.90;;;;;;5035301;28;20034;-72
2023/09/23 05:22:51;;;;;;;16.00;6.97;;;12.40;99.90;;;;;;5034902;28;20033;-72
2023/09/23 05:25:17;;;;;;;12.90;6.60;;;12.30;99.90;;;;;;5035200;28;20482;-72
2023/09/23 05:27:43;;;;;;;12.65;6.47;;;12.40;99.90;;;;;;5033989;28;20029;-72
2023/09/23 05:30:10;;;;;;;11.13;5.78;;;12.40;99.90;;;;;;5034885;28;20119;-72
2023/09/23 05:32:37;;;;;;;10.85;6.40;;;12.40;99.90;;;;;;5034297;28;20155;-72
2023/09/23 05:35:08;;;;;;;13.63;6.53;;;12.40;99.90;;;;;;5034369;28;20440;-72
2023/09/23 05:37:34;;;;;;;18.67;6.90;;;12.40;99.90;;;;;;5033809;28;20083;-72
2023/09/23 05:40:00;;;;;;;12.00;6.40;;;12.40;99.90;;;;;;5034057;28;20422;-72
2023/09/23 05:42:26;;;;;;;10.38;6.25;;;12.50;99.90;;;;;;5034711;28;20045;-72
2023/09/23 05:44:52;;;;;;;12.20;7.20;;;12.50;99.90;;;;;;5034890;28;20026;-72
2023/09/23 05:47:17;;;;;;;12.25;7.57;;;12.50;99.90;;;;;;5034436;28;20459;-72
2023/09/23 05:49:43;;;;;;;15.25;7.28;;;12.40;99.90;;;;;;5034508;28;20029;-72
2023/09/23 05:52:10;;;;;;;14.48;7.05;;;12.40;99.90;;;;;;5034310;28;20146;-72
2023/09/23 05:54:36;;;;;;;13.05;7.00;;;12.40;99.90;;;;;;5034146;28;20029;-72
2023/09/23 05:57:02;;;;;;;17.23;7.55;;;12.50;99.90;;;;;;5034049;28;20036;-72
2023/09/23 05:59:27;;;;;;;9.80;6.90;;;12.50;99.90;;;;;;5034082;28;20026;-72
2023/09/23 06:01:53;;;;;;;10.23;6.63;;;12.50;99.90;;;;;;5034294;28;20036;-72
2023/09/23 06:04:18;;;;;;;10.20;7.18;;;12.50;99.90;;;;;;5034248;28;20029;-72
2023/09/23 06:06:44;;;;;;;15.52;8.68;;;12.50;99.90;;;;;;5033879;28;20026;-72
2023/09/23 06:09:09;;;;;;;15.15;8.13;;;12.50;99.90;;;;;;5034247;28;20026;-72
2023/09/23 06:11:35;;;;;;;9.40;7.13;;;12.50;99.90;;;;;;5034360;28;20029;-72
2023/09/23 06:14:01;;;;;;;13.45;7.63;;;12.50;99.90;;;;;;5033795;28;20032;-73
2023/09/23 06:16:26;;;;;;;12.93;7.10;;;12.60;99.90;;;;;;5034009;28;20076;-71
2023/09/23 06:18:52;;;;;;;15.07;7.57;;;12.60;99.90;;;;;;5034023;28;20018;-72
2023/09/23 06:21:17;;;;;;;13.68;7.40;;;12.60;99.90;;;;;;5033636;28;20032;-73
2023/09/23 06:23:43;;;;;;;11.48;7.85;;;12.60;99.90;;;;;;5034226;28;20033;-72
2023/09/23 06:26:10;;;;;;;12.30;7.63;;;12.60;99.90;;;;;;5033397;28;20030;-72
2023/09/23 06:28:37;;;;;;;14.88;8.00;;;12.60;99.90;;;;;;5034050;28;20033;-72
2023/09/23 06:31:03;;;;;;;12.95;7.97;;;12.60;99.90;;;;;;5033487;28;20137;-72
2023/09/23 06:33:29;;;;;;;11.27;7.60;;;12.70;99.90;;;;;;5033885;28;20028;-72
2023/09/23 06:35:55;;;;;;;11.10;7.10;;;12.70;99.90;;;;;;5033770;28;20025;-72
2023/09/23 06:38:21;;;;;;;11.88;7.70;;;12.70;99.90;;;;;;5033879;28;20021;-72
2023/09/23 06:40:46;;;;;;;10.90;6.57;;;12.70;99.90;;;;;;5033747;28;20025;-73
2023/09/23 06:43:12;;;;;;;8.77;6.35;;;12.70;99.90;;;;;;5032967;28;20022;-72
2023/09/23 06:45:38;;;;;;;9.25;6.75;;;12.70;99.90;;;;;;5034143;28;20033;-72
2023/09/23 06:48:04;;;;;;;10.70;6.50;;;12.80;99.90;;;;;;5036122;28;20021;-72
2023/09/23 06:50:30;;;;;;;11.63;7.25;;;12.70;99.90;;;;;;5037505;28;20028;-72
2023/09/23 06:52:55;;;;;;;11.90;7.07;;;12.70;99.90;;;;;;5037379;28;20406;-72
2023/09/23 06:55:21;;;;;;;11.85;6.47;;;12.80;99.90;;;;;;5037706;28;20075;-72
2023/09/23 06:57:46;;;;;;;9.30;6.32;;;12.80;99.90;;;;;;5037989;28;20057;-73
2023/09/23 07:00:12;;;;;;;10.73;6.97;;;12.80;99.90;;;;;;5037186;28;20368;-72
2023/09/23 07:02:38;;;;;;;15.05;7.68;;;12.90;99.90;;;;;;5037368;28;20375;-72
2023/09/23 07:05:03;;;;;;;10.40;7.32;;;12.90;99.90;;;;;;5037887;28;20030;-72
2023/09/23 07:07:29;;;;;;;11.73;7.03;;;13.00;99.90;;;;;;5037819;28;20072;-73
2023/09/23 07:09:54;;;;;;;11.05;7.13;;;13.00;99.90;;;;;;5037386;28;20025;-72
2023/09/23 07:12:20;;;;;;;11.10;7.57;;;13.00;99.90;;;;;;5037274;28;20021;-72
2023/09/23 07:14:46;;;;;;;10.10;7.22;;;13.10;99.90;;;;;;5037022;28;20030;-73
2023/09/23 07:17:12;;;;;;;11.75;7.20;;;13.20;99.90;;;;;;5037015;28;20048;-73
2023/09/23 07:19:38;;;;;;;12.98;7.13;;;13.20;99.90;;;;;;5037313;28;20026;-73
2023/09/23 07:22:04;;;;;;;14.05;8.00;;;13.20;99.90;;;;;;5037196;28;20025;-72
2023/09/23 07:24:32;;;;;;;12.65;6.88;;;13.20;99.90;;;;;;5036449;28;20044;-73
2023/09/23 07:26:58;;;;;;;14.52;7.47;;;13.20;99.90;;;;;;5037499;28;20522;-72
2023/09/23 07:29:24;;;;;;;11.40;8.25;;;13.30;99.90;;;;;;5036859;28;20064;-73
2023/09/23 07:31:51;;;;;;;12.48;7.50;;;13.30;99.90;;;;;;5035946;28;20091;-72
2023/09/23 07:34:16;;;;;;;11.55;7.78;;;13.30;99.90;;;;;;5037254;28;20027;-72
2023/09/23 07:36:43;;;;;;;10.68;7.20;;;13.20;99.90;;;;;;5036457;28;20108;-73
2023/09/23 07:39:10;;;;;;;11.50;8.05;;;13.30;99.90;;;;;;5036910;28;20371;-72
2023/09/23 07:41:36;;;;;;;9.52;7.55;;;13.30;99.90;;;;;;5037118;28;20067;-72
2023/09/23 07:44:02;;;;;;;15.30;7.63;;;13.40;99.90;;;;;;5037127;28;20036;-72
2023/09/23 07:46:28;;;;;;;13.93;7.60;;;13.40;99.90;;;;;;5037048;28;20025;-73
2023/09/23 07:48:53;;;;;;;14.20;7.00;;;13.40;99.90;;;;;;5036849;28;20037;-72
2023/09/23 07:51:19;;;;;;;11.23;6.80;;;13.50;99.90;;;;;;5036349;28;20084;-72
2023/09/23 07:53:44;;;;;;;10.57;7.30;;;13.40;99.90;;;;;;5036981;28;20506;-72
2023/09/23 07:56:10;;;;;;;9.02;6.20;;;13.40;99.90;;;;;;5036658;28;20344;-73
2023/09/23 07:58:35;;;;;;;12.02;5.88;;;13.40;99.90;;;;;;5036015;28;20490;-72
2023/09/23 08:01:01;;;;;;;10.20;6.15;;;13.40;99.90;;;;;;5036190;28;20123;-72
2023/09/23 08:03:28;;;;;;;13.73;6.43;;;13.40;99.90;;;;;;5036232;28;20084;-72
2023/09/23 08:05:54;;;;;;;9.95;6.82;;;13.50;99.90;;;;;;5036359;28;20025;-71
2023/09/23 08:08:19;;;;;;;12.90;7.45;;;13.50;99.90;;;;;;5036297;28;20022;-72
2023/09/23 08:10:45;;;;;;;8.63;7.40;;;13.50;99.90;;;;;;5036357;28;20112;-71
2023/09/23 08:13:10;;;;;;;11.38;7.30;;;13.50;99.90;;;;;;5035709;28;20017;-72
2023/09/23 08:15:36;;;;;;;9.73;7.20;;;13.60;99.90;;;;;;5035400;28;20022;-72
2023/09/23 08:18:02;;;;;;;14.00;7.28;;;13.70;99.90;;;;;;5036337;28;20112;-73
2023/09/23 08:20:27;;;;;;;13.40;6.32;;;13.80;99.90;;;;;;5036459;28;20360;-71
2023/09/23 08:22:53;;;;;;;9.63;6.00;;;13.90;99.90;;;;;;5035714;28;20035;-72
2023/09/23 08:25:19;;;;;;;10.95;5.97;;;14.10;98.00;;;;;;5035146;28;20044;-72
2023/09/23 08:27:45;;;;;;;15.95;6.75;;;14.10;99.90;;;;;;5035912;28;20071;-71
2023/09/23 08:30:12;;;;;;;8.43;5.95;;;14.20;97.90;;;;;;5035530;28;20046;-72
2023/09/23 08:32:38;;;;;;;10.85;6.30;;;14.20;98.20;;;;;;5034944;28;20057;-72
2023/09/23 08:35:05;;;;;;;11.95;6.07;;;14.20;95.90;;;;;;5036325;28;20037;-71
2023/09/23 08:37:31;;;;;;;9.82;6.07;;;14.20;95.00;;;;;;5035935;28;20025;-71
2023/09/23 08:39:56;;;;;;;11.27;6.28;;;14.30;83.40;;;;;;5035497;28;20074;-72
2023/09/23 08:42:24;;;;;;;9.30;5.95;;;14.20;80.40;;;;;;5035811;28;20445;-71
2023/09/23 08:44:50;;;;;;;10.80;6.15;;;14.20;83.90;;;;;;5035762;28;20036;-72
2023/09/23 08:47:18;;;;;;;9.93;6.47;;;14.20;93.50;;;;;;5035921;28;20029;-71
2023/09/23 08:49:47;;;;;;;11.27;6.03;;;14.20;93.20;;;;;;5035946;28;20084;-71
2023/09/23 08:52:13;;;;;;;8.18;5.80;;;14.30;81.20;;;;;;5034914;28;20065;-71
2023/09/23 08:54:39;;;;;;;10.00;5.95;;;14.20;78.40;;;;;;5035719;28;20025;-73
2023/09/23 08:57:05;;;;;;;8.15;5.80;;;14.20;91.50;;;;;;5035083;28;20028;-72
2023/09/23 08:59:31;;;;;;;8.27;5.53;;;14.20;90.00;;;;;;5035434;28;20021;-71
2023/09/23 09:01:57;;;;;;;9.90;5.40;;;14.20;84.80;;;;;;5035039;28;20032;-72
2023/09/23 09:04:24;;;;;;;8.02;5.70;;;14.20;94.50;;;;;;5035445;28;20121;-70
2023/09/23 09:06:52;;;;;;;11.75;5.30;;;14.10;92.10;;;;;;5035578;28;20060;-71
2023/09/23 09:09:18;;;;;;;13.07;5.97;;;14.20;94.50;;;;;;5035170;28;20030;-71
2023/09/23 09:11:50;;;;;;;8.05;5.30;;;14.30;92.40;;;;;;5034325;28;20534;-72
2023/09/23 09:14:16;;;;;;;10.57;5.03;;;14.60;77.90;;;;;;5035001;28;20043;-71
2023/09/23 09:16:42;;;;;;;7.43;4.60;;;14.80;69.40;;;;;;5035086;28;20502;-71
2023/09/23 09:19:08;;;;;;;8.50;4.20;;;15.10;38.80;;;;;;5035093;28;20056;-71
2023/09/23 09:21:34;;;;;;;8.05;3.85;;;15.30;11.50;;;;;;5035064;28;20374;-71
2023/09/23 09:24:01;;;;;;;6.07;4.18;;;15.20;9.90;;;;;;5035261;28;20033;-71
2023/09/23 09:26:27;;;;;;;7.35;4.00;;;15.10;25.00;;;;;;5034349;28;20030;-71
2023/09/23 09:28:53;;;;;;;6.95;3.92;;;15.20;21.70;;;;;;5034954;28;20037;-71
2023/09/23 09:31:18;;;;;;;5.85;3.10;;;15.60;4.10;;;;;;5034174;28;20045;-71
2023/09/23 09:33:47;;;;;;;4.90;3.28;;;15.50;1.00;;;;;;5035030;28;20028;-71
2023/09/23 09:36:18;;;;;;;5.38;3.10;;;16.10;1.00;;;;;;5035031;28;20120;-71
2023/09/23 09:38:44;;;;;;;6.68;3.38;;;16.40;1.00;;;;;;5035058;28;20386;-71
2023/09/23 09:41:16;;;;;;;5.57;3.05;;;16.60;1.00;;;;;;5035013;28;20033;-72
2023/09/23 09:43:45;;;;;;;6.82;3.15;;;16.50;1.00;;;;;;5034148;28;20037;-72
2023/09/23 09:46:13;;;;;;;5.85;3.10;;;16.30;1.00;;;;;;5034546;28;20383;-72
2023/09/23 09:48:41;;;;;;;5.07;2.80;;;16.20;1.00;;;;;;5033616;28;20056;-74
2023/09/23 09:51:08;;;;;;;5.63;2.25;;;16.00;1.00;;;;;;5034503;28;20042;-73
2023/09/23 09:53:36;;;;;;;3.58;2.45;;;16.00;1.00;;;;;;5034268;28;20026;-72
2023/09/23 09:56:04;;;;;;;5.22;2.72;;;16.30;1.00;;;;;;5034392;28;20479;-72
2023/09/23 09:58:38;;;;;;;4.88;2.83;;;16.20;1.00;;;;;;5034210;28;20415;-71
2023/09/23 10:01:08;;;;;;;4.32;2.50;;;16.60;1.00;;;;;;5033802;28;20068;-72
2023/09/23 10:03:36;;;;;;;4.22;2.35;;;17.40;1.00;;;;;;5033891;28;20034;-72
2023/09/23 10:06:02;;;;;;;5.03;2.40;;;17.80;99.90;;;;;;5034266;28;20044;-71
2023/09/23 10:08:35;;;;;;;4.97;2.42;;;17.70;99.90;;;;;;5033941;28;20052;-72
2023/09/23 10:11:04;;;;;;;5.15;2.15;;;17.70;99.90;;;;;;5033806;28;20060;-73
2023/09/23 10:13:33;;;;;;;8.57;2.08;;;17.80;99.90;;;;;;5034373;28;20486;-72
2023/09/23 10:16:04;;;;;;;4.00;2.20;;;18.50;99.90;;;;;;5033704;28;20445;-72
2023/09/23 10:18:39;;;;;;;3.00;2.08;;;17.90;99.90;;;;;;5034119;28;20160;-73
2023/09/23 10:21:05;;;;;;;5.40;2.28;;;17.00;99.90;;;;;;5034221;28;20142;-72
2023/09/23 10:23:35;;;;;;;5.70;2.42;;;16.80;1.00;;;;;;5033600;28;20033;-72
2023/09/23 10:26:16;;;;;;;4.97;2.38;;;16.60;1.00;;;;;;5033948;28;20529;-71
2023/09/23 10:28:43;;;;;;;3.85;2.35;;;16.90;99.90;;;;;;5034118;28;20071;-72
2023/09/23 10:31:09;;;;;;;4.53;2.35;;;17.90;99.90;;;;;;5032624;28;20071;-72
2023/09/23 10:33:36;;;;;;;5.78;2.58;;;18.30;99.90;;;;;;5033503;28;20172;-72
2023/09/23 10:36:03;;;;;;;6.80;2.42;;;18.30;99.90;;;;;;5033812;28;20041;-72
2023/09/23 10:38:34;;;;;;;7.20;2.53;;;18.20;1.00;;;;;;5033379;28;20080;-72
2023/09/23 10:41:00;;;;;;;6.07;2.33;;;18.40;1.00;;;;;;5034032;28;20030;-72
2023/09/23 10:43:26;;;;;;;3.97;2.17;;;19.10;99.90;;;;;;5033510;28;20136;-72
2023/09/23 10:45:53;;;;;;;18.77;9.13;;;19.10;99.90;;;;;;5034118;28;20091;-72
2023/09/23 10:48:19;;;;;;;6.20;1.98;;;18.60;99.90;;;;;;5033660;28;20021;-72
2023/09/23 10:50:46;;;;;;;8.15;2.58;;;17.70;1.00;;;;;;5033599;28;20022;-73
2023/09/23 10:53:12;;;;;;;6.85;2.30;;;17.60;99.90;;;;;;5033407;28;20029;-73
2023/09/23 10:55:39;;;;;;;4.18;2.13;;;17.30;99.90;;;;;;5033615;28;20025;-73
2023/09/23 10:58:06;;;;;;;4.50;1.92;;;17.50;99.90;;;;;;5033658;28;20079;-72
2023/09/23 11:00:33;;;;;;;6.32;2.05;;;17.20;99.90;;;;;;5033914;28;20503;-72
2023/09/23 11:03:19;;;;;;;2.65;1.83;;;17.10;99.90;;;;;;5033282;28;20021;-72
2023/09/23 11:05:47;;;;;;;5.43;1.70;;;17.00;99.90;;;;;;5032570;28;20116;-72
2023/09/23 11:08:14;;;;;;;5.15;1.88;;;17.40;99.90;;;;;;5033212;28;20032;-72
2023/09/23 11:10:42;;;;;;;5.28;2.20;;;17.50;99.90;;;;;;5033853;28;20037;-72
2023/09/23 11:13:10;;;;;;;5.95;1.98;;;17.50;99.90;;;;;;5033318;28;20031;-72
2023/09/23 11:15:37;;;;;;;4.57;2.05;;;17.70;1.00;;;;;;5033563;28;20458;-71
2023/09/23 11:18:06;;;;;;;6.75;2.20;;;17.40;24.50;;;;;;5033735;28;20033;-72
2023/09/23 11:20:33;;;;;;;5.95;2.05;;;17.70;1.00;;;;;;5033864;28;20064;-71
2023/09/23 11:23:03;;;;;;;3.65;1.52;;;18.00;1.00;;;;;;5033249;28;20029;-72
2023/09/23 11:25:29;;;;;;;3.47;1.60;;;18.50;99.90;;;;;;5033412;28;20034;-72
2023/09/23 11:27:59;;;;;;;5.35;2.10;;;18.60;26.20;;;;;;5032550;28;20030;-72
2023/09/23 11:30:25;;;;;;;5.25;1.95;;;18.20;99.90;;;;;;5032901;28;20084;-72
2023/09/23 11:32:52;;;;;;;3.80;2.05;;;17.70;1.00;;;;;;5033035;28;20061;-72
2023/09/23 11:35:18;;;;;;;9.13;2.28;;;17.30;1.00;;;;;;5035913;28;20360;-72
2023/09/23 11:37:46;;;;;;;4.85;2.25;;;16.90;99.90;;;;;;5037124;28;20032;-72
2023/09/23 11:40:12;;;;;;;3.20;2.10;;;16.90;99.90;;;;;;5037017;28;20029;-72
2023/09/23 11:42:38;;;;;;;5.60;2.20;;;17.00;99.90;;;;;;5036568;28;20483;-72
2023/09/23 11:45:04;;;;;;;3.28;2.30;;;16.90;99.90;;;;;;5037236;28;20026;-71
2023/09/23 11:47:30;;;;;;;3.88;2.00;;;16.90;99.90;;;;;;5037133;28;20026;-72
2023/09/23 11:49:55;;;;;;;3.17;1.98;;;17.20;99.90;;;;;;5035971;28;20029;-72
2023/09/23 11:52:21;;;;;;;7.60;2.53;;;17.20;99.90;;;;;;5036163;28;20034;-72
2023/09/23 11:54:47;;;;;;;3.03;2.25;;;16.90;99.90;;;;;;5036764;28;20017;-72
2023/09/23 11:57:13;;;;;;;4.00;1.88;;;17.50;99.90;;;;;;5036709;28;20160;-71
2023/09/23 11:59:39;;;;;;;3.05;1.70;;;18.10;99.90;;;;;;5036647;28;20030;-72
2023/09/23 12:02:05;;;;;;;5.45;1.95;;;17.90;1.00;;;;;;5036630;28;20466;-72
2023/09/23 12:04:31;;;;;;;7.53;2.30;;;17.70;1.00;;;;;;5036450;28;20021;-72
2023/09/23 12:06:57;;;;;;;4.15;1.80;;;17.50;19.20;;;;;;5035783;28;20497;-72
2023/09/23 12:09:24;;;;;;;4.18;1.80;;;17.40;99.90;;;;;;5036705;28;20029;-72
2023/09/23 12:11:50;;;;;;;7.15;2.10;;;17.40;99.90;;;;;;5036231;28;20030;-72
2023/09/23 12:14:18;;;;;;;4.00;1.88;;;17.40;99.90;;;;;;5036360;28;20057;-73
2023/09/23 12:16:44;;;;;;;7.32;2.40;;;17.50;99.90;;;;;;5036540;28;20478;-72
2023/09/23 12:19:10;;;;;;;9.57;2.30;;;17.40;99.90;;;;;;5036609;28;20083;-72
2023/09/23 12:21:35;;;;;;;4.25;2.35;;;17.20;99.90;;;;;;5036461;28;20120;-72
2023/09/23 12:24:02;;;;;;;3.88;2.22;;;17.60;99.90;;;;;;5035797;28;20470;-72
2023/09/23 12:26:28;;;;;;;8.48;2.05;;;18.30;28.00;;;;;;5036247;28;20025;-72
2023/09/23 12:28:54;;;;;;;6.28;2.15;;;18.50;1.00;;;;;;5036199;28;20033;-74
2023/09/23 12:31:20;;;;;;;4.72;2.10;;;18.60;99.90;;;;;;5035337;28;20136;-73
2023/09/23 12:33:45;;;;;;;5.43;2.15;;;18.90;99.90;;;;;;5035579;28;20072;-72
2023/09/23 12:36:11;;;;;;;6.90;2.00;;;18.90;99.90;;;;;;5036179;28;20029;-72
2023/09/23 12:38:37;;;;;;;4.47;1.98;;;18.40;99.90;;;;;;5035775;28;20025;-76